sensor_id;sensor_type;location;lat;lon;timestamp;P1;durP1;ratioP1;P2;durP2;ratioP2
59728;SDS011;45588;51.598;5.618;2023-04-25T00:02:00;20.55;;;4.45;;
59728;SDS011;45588;51.598;5.618;2023-04-25T00:04:26;10.13;;;4.72;;
59728;SDS011;45588;51.598;5.618;2023-04-25T00:06:51;14.75;;;4.65;;
59728;SDS011;45588;51.598;5.618;2023-04-25T00:09:17;8.73;;;4.22;;
59728;SDS011;45588;51.598;5.618;2023-04-25T00:11:42;6.65;;;3.78;;
59728;SDS011;45588;51.598;5.618;2023-04-25T00:14:07;18.23;;;4.35;;
59728;SDS011;45588;51.598;5.618;2023-04-25T00:16:32;15.15;;;6.13;;
59728;SDS011;45588;51.598;5.618;2023-04-25T00:19:00;12.60;;;4.78;;
59728;SDS011;45588;51.598;5.618;2023-04-25T00:21:26;12.63;;;3.75;;
59728;SDS011;45588;51.598;5.618;2023-04-25T00:23:55;7.97;;;4.37;;
59728;SDS011;45588;51.598;5.618;2023-04-25T00:26:20;9.57;;;4.07;;
59728;SDS011;45588;51.598;5.618;2023-04-25T00:28:48;12.95;;;4.25;;
59728;SDS011;45588;51.598;5.618;2023-04-25T00:31:13;12.48;;;4.55;;
59728;SDS011;45588;51.598;5.618;2023-04-25T00:33:38;16.15;;;4.38;;
59728;SDS011;45588;51.598;5.618;2023-04-25T00:36:03;11.25;;;3.90;;
59728;SDS011;45588;51.598;5.618;2023-04-25T00:38:29;14.85;;;4.18;;
59728;SDS011;45588;51.598;5.618;2023-04-25T00:40:54;19.80;;;3.88;;
59728;SDS011;45588;51.598;5.618;2023-04-25T00:43:20;14.07;;;5.43;;
59728;SDS011;45588;51.598;5.618;2023-04-25T00:45:46;18.47;;;4.13;;
59728;SDS011;45588;51.598;5.618;2023-04-25T00:48:11;9.82;;;4.63;;
59728;SDS011;45588;51.598;5.618;2023-04-25T00:50:38;14.57;;;4.43;;
59728;SDS011;45588;51.598;5.618;2023-04-25T00:53:03;18.10;;;4.10;;
59728;SDS011;45588;51.598;5.618;2023-04-25T00:55:29;10.10;;;3.90;;
59728;SDS011;45588;51.598;5.618;2023-04-25T00:57:56;14.25;;;4.22;;
59728;SDS011;45588;51.598;5.618;2023-04-25T01:00:21;13.63;;;3.72;;
59728;SDS011;45588;51.598;5.618;2023-04-25T01:02:46;17.38;;;4.60;;
59728;SDS011;45588;51.598;5.618;2023-04-25T01:05:12;20.60;;;5.10;;
59728;SDS011;45588;51.598;5.618;2023-04-25T01:07:37;16.73;;;4.38;;
59728;SDS011;45588;51.598;5.618;2023-04-25T01:10:02;13.68;;;3.63;;
59728;SDS011;45588;51.598;5.618;2023-04-25T01:12:28;14.77;;;4.97;;
59728;SDS011;45588;51.598;5.618;2023-04-25T01:14:53;13.77;;;4.88;;
59728;SDS011;45588;51.598;5.618;2023-04-25T01:17:18;13.85;;;4.72;;
59728;SDS011;45588;51.598;5.618;2023-04-25T01:19:44;10.10;;;4.50;;
59728;SDS011;45588;51.598;5.618;2023-04-25T01:22:12;17.90;;;4.15;;
59728;SDS011;45588;51.598;5.618;2023-04-25T01:24:39;13.55;;;3.97;;
59728;SDS011;45588;51.598;5.618;2023-04-25T01:27:04;20.98;;;4.93;;
59728;SDS011;45588;51.598;5.618;2023-04-25T01:29:30;19.70;;;5.30;;
59728;SDS011;45588;51.598;5.618;2023-04-25T01:31:55;14.25;;;4.45;;
59728;SDS011;45588;51.598;5.618;2023-04-25T01:34:21;16.38;;;4.30;;
59728;SDS011;45588;51.598;5.618;2023-04-25T01:36:49;31.77;;;10.55;;
59728;SDS011;45588;51.598;5.618;2023-04-25T01:39:15;12.80;;;4.55;;
59728;SDS011;45588;51.598;5.618;2023-04-25T01:41:41;8.43;;;4.05;;
59728;SDS011;45588;51.598;5.618;2023-04-25T01:44:07;25.98;;;5.20;;
59728;SDS011;45588;51.598;5.618;2023-04-25T01:46:32;18.33;;;5.37;;
59728;SDS011;45588;51.598;5.618;2023-04-25T01:48:58;21.00;;;5.13;;
59728;SDS011;45588;51.598;5.618;2023-04-25T01:51:23;14.43;;;4.90;;
59728;SDS011;45588;51.598;5.618;2023-04-25T01:53:48;20.90;;;4.65;;
59728;SDS011;45588;51.598;5.618;2023-04-25T01:56:14;16.70;;;4.60;;
59728;SDS011;45588;51.598;5.618;2023-04-25T01:58:39;19.20;;;5.00;;
59728;SDS011;45588;51.598;5.618;2023-04-25T02:01:04;20.33;;;4.60;;
59728;SDS011;45588;51.598;5.618;2023-04-25T02:03:30;13.00;;;4.68;;
59728;SDS011;45588;51.598;5.618;2023-04-25T02:05:56;15.82;;;4.43;;
59728;SDS011;45588;51.598;5.618;2023-04-25T02:08:21;32.15;;;11.25;;
59728;SDS011;45588;51.598;5.618;2023-04-25T02:10:46;20.58;;;5.75;;
59728;SDS011;45588;51.598;5.618;2023-04-25T02:13:11;16.83;;;5.00;;
59728;SDS011;45588;51.598;5.618;2023-04-25T02:15:37;19.83;;;8.13;;
59728;SDS011;45588;51.598;5.618;2023-04-25T02:18:02;15.88;;;4.75;;
59728;SDS011;45588;51.598;5.618;2023-04-25T02:20:30;16.50;;;5.60;;
59728;SDS011;45588;51.598;5.618;2023-04-25T02:22:56;27.60;;;11.35;;
59728;SDS011;45588;51.598;5.618;2023-04-25T02:25:21;23.05;;;6.13;;
59728;SDS011;45588;51.598;5.618;2023-04-25T02:27:47;17.90;;;5.75;;
59728;SDS011;45588;51.598;5.618;2023-04-25T02:30:12;23.38;;;5.70;;
59728;SDS011;45588;51.598;5.618;2023-04-25T02:32:38;16.80;;;5.15;;
59728;SDS011;45588;51.598;5.618;2023-04-25T02:35:03;17.75;;;5.80;;
59728;SDS011;45588;51.598;5.618;2023-04-25T02:37:29;16.90;;;5.25;;
59728;SDS011;45588;51.598;5.618;2023-04-25T02:39:55;26.90;;;5.72;;
59728;SDS011;45588;51.598;5.618;2023-04-25T02:42:20;20.63;;;6.55;;
59728;SDS011;45588;51.598;5.618;2023-04-25T02:44:45;26.10;;;6.47;;
59728;SDS011;45588;51.598;5.618;2023-04-25T02:47:10;20.35;;;6.25;;
59728;SDS011;45588;51.598;5.618;2023-04-25T02:49:35;18.00;;;5.68;;
59728;SDS011;45588;51.598;5.618;2023-04-25T02:52:01;17.10;;;5.27;;
59728;SDS011;45588;51.598;5.618;2023-04-25T02:54:26;24.17;;;5.70;;
59728;SDS011;45588;51.598;5.618;2023-04-25T02:56:51;11.97;;;4.70;;
59728;SDS011;45588;51.598;5.618;2023-04-25T02:59:16;19.53;;;5.27;;
59728;SDS011;45588;51.598;5.618;2023-04-25T03:01:41;14.68;;;4.95;;
59728;SDS011;45588;51.598;5.618;2023-04-25T03:04:06;22.10;;;5.50;;
59728;SDS011;45588;51.598;5.618;2023-04-25T03:06:32;17.10;;;4.65;;
59728;SDS011;45588;51.598;5.618;2023-04-25T03:08:57;18.42;;;5.10;;
59728;SDS011;45588;51.598;5.618;2023-04-25T03:11:23;19.33;;;6.03;;
59728;SDS011;45588;51.598;5.618;2023-04-25T03:13:48;14.77;;;4.80;;
59728;SDS011;45588;51.598;5.618;2023-04-25T03:16:13;30.40;;;5.82;;
59728;SDS011;45588;51.598;5.618;2023-04-25T03:18:39;18.08;;;5.15;;
59728;SDS011;45588;51.598;5.618;2023-04-25T03:21:04;14.43;;;4.78;;
59728;SDS011;45588;51.598;5.618;2023-04-25T03:23:29;11.32;;;4.88;;
59728;SDS011;45588;51.598;5.618;2023-04-25T03:25:55;15.60;;;5.13;;
59728;SDS011;45588;51.598;5.618;2023-04-25T03:28:21;16.47;;;5.47;;
59728;SDS011;45588;51.598;5.618;2023-04-25T03:30:46;20.00;;;5.60;;
59728;SDS011;45588;51.598;5.618;2023-04-25T03:33:12;19.63;;;4.90;;
59728;SDS011;45588;51.598;5.618;2023-04-25T03:35:37;11.98;;;4.80;;
59728;SDS011;45588;51.598;5.618;2023-04-25T03:38:02;21.40;;;6.43;;
59728;SDS011;45588;51.598;5.618;2023-04-25T03:40:27;26.98;;;11.90;;
59728;SDS011;45588;51.598;5.618;2023-04-25T03:42:52;12.50;;;5.68;;
59728;SDS011;45588;51.598;5.618;2023-04-25T03:45:17;25.48;;;5.55;;
59728;SDS011;45588;51.598;5.618;2023-04-25T03:47:43;23.02;;;7.03;;
59728;SDS011;45588;51.598;5.618;2023-04-25T03:50:08;18.00;;;4.88;;
59728;SDS011;45588;51.598;5.618;2023-04-25T03:52:34;12.43;;;4.10;;
59728;SDS011;45588;51.598;5.618;2023-04-25T03:54:59;18.15;;;5.80;;
59728;SDS011;45588;51.598;5.618;2023-04-25T03:57:24;17.75;;;5.00;;
59728;SDS011;45588;51.598;5.618;2023-04-25T03:59:49;13.52;;;6.25;;
59728;SDS011;45588;51.598;5.618;2023-04-25T04:02:15;16.48;;;5.07;;
59728;SDS011;45588;51.598;5.618;2023-04-25T04:04:40;16.30;;;5.72;;
59728;SDS011;45588;51.598;5.618;2023-04-25T04:07:05;13.45;;;5.80;;
59728;SDS011;45588;51.598;5.618;2023-04-25T04:09:30;18.23;;;4.82;;
59728;SDS011;45588;51.598;5.618;2023-04-25T04:11:55;12.47;;;4.50;;
59728;SDS011;45588;51.598;5.618;2023-04-25T04:14:21;13.15;;;4.95;;
59728;SDS011;45588;51.598;5.618;2023-04-25T04:16:46;16.38;;;5.68;;
59728;SDS011;45588;51.598;5.618;2023-04-25T04:19:11;17.70;;;5.45;;
59728;SDS011;45588;51.598;5.618;2023-04-25T04:21:36;17.10;;;4.63;;
59728;SDS011;45588;51.598;5.618;2023-04-25T04:24:01;24.35;;;7.00;;
59728;SDS011;45588;51.598;5.618;2023-04-25T04:26:27;15.13;;;5.38;;
59728;SDS011;45588;51.598;5.618;2023-04-25T04:28:52;15.20;;;5.70;;
59728;SDS011;45588;51.598;5.618;2023-04-25T04:31:19;28.55;;;6.03;;
59728;SDS011;45588;51.598;5.618;2023-04-25T04:33:45;20.50;;;6.20;;
59728;SDS011;45588;51.598;5.618;2023-04-25T04:36:10;28.00;;;7.07;;
59728;SDS011;45588;51.598;5.618;2023-04-25T04:38:35;18.58;;;5.78;;
59728;SDS011;45588;51.598;5.618;2023-04-25T04:41:01;16.42;;;5.72;;
59728;SDS011;45588;51.598;5.618;2023-04-25T04:43:27;20.20;;;5.82;;
59728;SDS011;45588;51.598;5.618;2023-04-25T04:45:53;19.15;;;5.60;;
59728;SDS011;45588;51.598;5.618;2023-04-25T04:48:21;18.58;;;6.68;;
59728;SDS011;45588;51.598;5.618;2023-04-25T04:50:46;18.52;;;5.97;;
59728;SDS011;45588;51.598;5.618;2023-04-25T04:53:11;15.45;;;6.18;;
59728;SDS011;45588;51.598;5.618;2023-04-25T04:55:36;21.08;;;6.18;;
59728;SDS011;45588;51.598;5.618;2023-04-25T04:58:02;20.15;;;6.80;;
59728;SDS011;45588;51.598;5.618;2023-04-25T05:00:27;19.08;;;6.32;;
59728;SDS011;45588;51.598;5.618;2023-04-25T05:02:54;25.10;;;6.88;;
59728;SDS011;45588;51.598;5.618;2023-04-25T05:05:19;20.95;;;6.43;;
59728;SDS011;45588;51.598;5.618;2023-04-25T05:07:44;16.45;;;5.38;;
59728;SDS011;45588;51.598;5.618;2023-04-25T05:10:09;12.70;;;5.15;;
59728;SDS011;45588;51.598;5.618;2023-04-25T05:12:35;20.40;;;6.35;;
59728;SDS011;45588;51.598;5.618;2023-04-25T05:15:00;11.43;;;4.45;;
59728;SDS011;45588;51.598;5.618;2023-04-25T05:17:28;16.80;;;6.45;;
59728;SDS011;45588;51.598;5.618;2023-04-25T05:19:53;16.23;;;4.00;;
59728;SDS011;45588;51.598;5.618;2023-04-25T05:22:19;17.85;;;5.07;;
59728;SDS011;45588;51.598;5.618;2023-04-25T05:24:44;22.67;;;6.38;;
59728;SDS011;45588;51.598;5.618;2023-04-25T05:27:09;18.25;;;4.88;;
59728;SDS011;45588;51.598;5.618;2023-04-25T05:29:34;19.30;;;5.30;;
59728;SDS011;45588;51.598;5.618;2023-04-25T05:32:00;17.15;;;4.95;;
59728;SDS011;45588;51.598;5.618;2023-04-25T05:34:25;19.20;;;5.35;;
59728;SDS011;45588;51.598;5.618;2023-04-25T05:36:50;13.15;;;4.93;;
59728;SDS011;45588;51.598;5.618;2023-04-25T05:39:16;17.40;;;5.97;;
59728;SDS011;45588;51.598;5.618;2023-04-25T05:41:42;13.90;;;5.30;;
59728;SDS011;45588;51.598;5.618;2023-04-25T05:44:07;20.20;;;5.03;;
59728;SDS011;45588;51.598;5.618;2023-04-25T05:46:32;28.37;;;9.90;;
59728;SDS011;45588;51.598;5.618;2023-04-25T05:48:57;24.33;;;5.22;;
59728;SDS011;45588;51.598;5.618;2023-04-25T05:51:23;17.10;;;4.47;;
59728;SDS011;45588;51.598;5.618;2023-04-25T05:53:48;20.15;;;5.00;;
59728;SDS011;45588;51.598;5.618;2023-04-25T05:56:13;17.33;;;5.20;;
59728;SDS011;45588;51.598;5.618;2023-04-25T05:58:38;18.75;;;6.75;;
59728;SDS011;45588;51.598;5.618;2023-04-25T06:01:03;22.65;;;5.95;;
59728;SDS011;45588;51.598;5.618;2023-04-25T06:03:28;11.02;;;4.22;;
59728;SDS011;45588;51.598;5.618;2023-04-25T06:05:54;13.23;;;4.00;;
59728;SDS011;45588;51.598;5.618;2023-04-25T06:08:19;13.63;;;4.07;;
59728;SDS011;45588;51.598;5.618;2023-04-25T06:10:44;15.57;;;4.65;;
59728;SDS011;45588;51.598;5.618;2023-04-25T06:13:09;21.90;;;4.55;;
59728;SDS011;45588;51.598;5.618;2023-04-25T06:15:35;13.32;;;4.05;;
59728;SDS011;45588;51.598;5.618;2023-04-25T06:18:00;12.10;;;4.53;;
59728;SDS011;45588;51.598;5.618;2023-04-25T06:20:25;12.30;;;3.60;;
59728;SDS011;45588;51.598;5.618;2023-04-25T06:22:50;9.38;;;4.00;;
59728;SDS011;45588;51.598;5.618;2023-04-25T06:25:17;17.70;;;6.50;;
59728;SDS011;45588;51.598;5.618;2023-04-25T06:27:43;12.02;;;4.72;;
59728;SDS011;45588;51.598;5.618;2023-04-25T06:30:08;23.35;;;5.55;;
59728;SDS011;45588;51.598;5.618;2023-04-25T06:32:33;13.80;;;6.63;;
59728;SDS011;45588;51.598;5.618;2023-04-25T06:34:59;8.20;;;2.80;;
59728;SDS011;45588;51.598;5.618;2023-04-25T06:37:25;13.98;;;4.07;;
59728;SDS011;45588;51.598;5.618;2023-04-25T06:39:50;14.45;;;3.67;;
59728;SDS011;45588;51.598;5.618;2023-04-25T06:42:15;19.48;;;4.28;;
59728;SDS011;45588;51.598;5.618;2023-04-25T06:44:40;7.43;;;3.22;;
59728;SDS011;45588;51.598;5.618;2023-04-25T06:47:05;9.33;;;2.90;;
59728;SDS011;45588;51.598;5.618;2023-04-25T06:49:31;10.80;;;3.10;;
59728;SDS011;45588;51.598;5.618;2023-04-25T06:51:56;15.67;;;3.70;;
59728;SDS011;45588;51.598;5.618;2023-04-25T06:54:21;12.57;;;5.07;;
59728;SDS011;45588;51.598;5.618;2023-04-25T06:56:46;9.70;;;2.50;;
59728;SDS011;45588;51.598;5.618;2023-04-25T06:59:11;8.52;;;2.47;;
59728;SDS011;45588;51.598;5.618;2023-04-25T07:01:37;4.65;;;3.00;;
59728;SDS011;45588;51.598;5.618;2023-04-25T07:04:02;8.17;;;3.17;;
59728;SDS011;45588;51.598;5.618;2023-04-25T07:06:27;11.27;;;5.28;;
59728;SDS011;45588;51.598;5.618;2023-04-25T07:08:52;13.15;;;4.38;;
59728;SDS011;45588;51.598;5.618;2023-04-25T07:11:18;12.90;;;3.00;;
59728;SDS011;45588;51.598;5.618;2023-04-25T07:13:43;6.83;;;2.30;;
59728;SDS011;45588;51.598;5.618;2023-04-25T07:16:08;12.27;;;2.90;;
59728;SDS011;45588;51.598;5.618;2023-04-25T07:18:33;8.10;;;2.90;;
59728;SDS011;45588;51.598;5.618;2023-04-25T07:20:58;12.98;;;3.53;;
59728;SDS011;45588;51.598;5.618;2023-04-25T07:23:23;11.47;;;3.30;;
59728;SDS011;45588;51.598;5.618;2023-04-25T07:25:49;8.88;;;3.92;;
59728;SDS011;45588;51.598;5.618;2023-04-25T07:28:14;10.02;;;2.83;;
59728;SDS011;45588;51.598;5.618;2023-04-25T07:30:40;7.65;;;2.78;;
59728;SDS011;45588;51.598;5.618;2023-04-25T07:33:05;8.93;;;2.80;;
59728;SDS011;45588;51.598;5.618;2023-04-25T07:35:30;9.43;;;3.40;;
59728;SDS011;45588;51.598;5.618;2023-04-25T07:37:55;12.73;;;3.30;;
59728;SDS011;45588;51.598;5.618;2023-04-25T07:40:20;7.70;;;3.17;;
59728;SDS011;45588;51.598;5.618;2023-04-25T07:42:46;11.85;;;3.10;;
59728;SDS011;45588;51.598;5.618;2023-04-25T07:45:11;11.82;;;3.30;;
59728;SDS011;45588;51.598;5.618;2023-04-25T07:47:36;9.57;;;3.65;;
59728;SDS011;45588;51.598;5.618;2023-04-25T07:50:03;10.95;;;3.13;;
59728;SDS011;45588;51.598;5.618;2023-04-25T07:52:28;11.27;;;4.35;;
59728;SDS011;45588;51.598;5.618;2023-04-25T07:54:53;8.40;;;2.88;;
59728;SDS011;45588;51.598;5.618;2023-04-25T07:57:18;8.15;;;2.63;;
59728;SDS011;45588;51.598;5.618;2023-04-25T07:59:44;6.78;;;2.03;;
59728;SDS011;45588;51.598;5.618;2023-04-25T08:02:09;8.30;;;2.45;;
59728;SDS011;45588;51.598;5.618;2023-04-25T08:04:35;10.25;;;2.70;;
59728;SDS011;45588;51.598;5.618;2023-04-25T08:07:00;11.20;;;4.10;;
59728;SDS011;45588;51.598;5.618;2023-04-25T08:09:25;9.55;;;2.20;;
59728;SDS011;45588;51.598;5.618;2023-04-25T08:11:51;13.18;;;2.35;;
59728;SDS011;45588;51.598;5.618;2023-04-25T08:14:16;9.35;;;3.20;;
59728;SDS011;45588;51.598;5.618;2023-04-25T08:16:41;4.97;;;1.90;;
59728;SDS011;45588;51.598;5.618;2023-04-25T08:19:07;8.82;;;2.63;;
59728;SDS011;45588;51.598;5.618;2023-04-25T08:21:32;12.77;;;3.03;;
59728;SDS011;45588;51.598;5.618;2023-04-25T08:23:57;6.65;;;2.42;;
59728;SDS011;45588;51.598;5.618;2023-04-25T08:26:23;11.88;;;3.22;;
59728;SDS011;45588;51.598;5.618;2023-04-25T08:28:48;8.10;;;2.30;;
59728;SDS011;45588;51.598;5.618;2023-04-25T08:31:13;14.82;;;2.00;;
59728;SDS011;45588;51.598;5.618;2023-04-25T08:33:39;11.77;;;3.80;;
59728;SDS011;45588;51.598;5.618;2023-04-25T08:36:05;7.18;;;2.22;;
59728;SDS011;45588;51.598;5.618;2023-04-25T08:38:30;16.15;;;3.28;;
59728;SDS011;45588;51.598;5.618;2023-04-25T08:40:56;6.68;;;2.38;;
59728;SDS011;45588;51.598;5.618;2023-04-25T08:43:21;12.80;;;2.03;;
59728;SDS011;45588;51.598;5.618;2023-04-25T08:45:48;7.57;;;2.95;;
59728;SDS011;45588;51.598;5.618;2023-04-25T08:48:13;11.73;;;2.00;;
59728;SDS011;45588;51.598;5.618;2023-04-25T08:50:39;10.68;;;2.15;;
59728;SDS011;45588;51.598;5.618;2023-04-25T08:53:05;8.77;;;1.92;;
59728;SDS011;45588;51.598;5.618;2023-04-25T08:55:33;8.30;;;2.80;;
59728;SDS011;45588;51.598;5.618;2023-04-25T08:57:59;7.18;;;1.75;;
59728;SDS011;45588;51.598;5.618;2023-04-25T09:00:25;13.55;;;3.53;;
59728;SDS011;45588;51.598;5.618;2023-04-25T09:02:50;16.50;;;2.58;;
59728;SDS011;45588;51.598;5.618;2023-04-25T09:05:16;7.57;;;1.90;;
59728;SDS011;45588;51.598;5.618;2023-04-25T09:07:41;9.32;;;2.55;;
59728;SDS011;45588;51.598;5.618;2023-04-25T09:10:06;13.27;;;3.78;;
59728;SDS011;45588;51.598;5.618;2023-04-25T09:12:32;9.35;;;2.58;;
59728;SDS011;45588;51.598;5.618;2023-04-25T09:15:01;3.72;;;1.63;;
59728;SDS011;45588;51.598;5.618;2023-04-25T09:17:26;4.88;;;1.77;;
59728;SDS011;45588;51.598;5.618;2023-04-25T09:19:51;9.88;;;2.58;;
59728;SDS011;45588;51.598;5.618;2023-04-25T09:22:17;12.05;;;2.95;;
59728;SDS011;45588;51.598;5.618;2023-04-25T09:24:43;14.00;;;4.55;;
59728;SDS011;45588;51.598;5.618;2023-04-25T09:27:11;6.18;;;2.30;;
59728;SDS011;45588;51.598;5.618;2023-04-25T09:29:37;12.52;;;2.95;;
59728;SDS011;45588;51.598;5.618;2023-04-25T09:32:22;12.52;;;2.47;;
59728;SDS011;45588;51.598;5.618;2023-04-25T09:34:51;6.32;;;1.83;;
59728;SDS011;45588;51.598;5.618;2023-04-25T09:37:17;3.95;;;1.65;;
59728;SDS011;45588;51.598;5.618;2023-04-25T09:39:44;8.90;;;2.00;;
59728;SDS011;45588;51.598;5.618;2023-04-25T09:42:09;2.50;;;1.45;;
59728;SDS011;45588;51.598;5.618;2023-04-25T09:44:35;3.53;;;1.25;;
59728;SDS011;45588;51.598;5.618;2023-04-25T09:47:00;3.45;;;1.35;;
59728;SDS011;45588;51.598;5.618;2023-04-25T09:49:27;6.20;;;1.50;;
59728;SDS011;45588;51.598;5.618;2023-04-25T09:51:56;5.63;;;1.70;;
59728;SDS011;45588;51.598;5.618;2023-04-25T09:54:22;10.70;;;2.30;;
59728;SDS011;45588;51.598;5.618;2023-04-25T09:56:48;8.02;;;1.75;;
59728;SDS011;45588;51.598;5.618;2023-04-25T09:59:14;4.65;;;1.67;;
59728;SDS011;45588;51.598;5.618;2023-04-25T10:01:40;5.65;;;2.33;;
59728;SDS011;45588;51.598;5.618;2023-04-25T10:04:06;5.13;;;1.77;;
59728;SDS011;45588;51.598;5.618;2023-04-25T10:06:35;7.50;;;2.15;;
59728;SDS011;45588;51.598;5.618;2023-04-25T10:09:01;2.90;;;1.48;;
59728;SDS011;45588;51.598;5.618;2023-04-25T10:11:28;4.88;;;1.85;;
59728;SDS011;45588;51.598;5.618;2023-04-25T10:13:53;3.85;;;1.30;;
59728;SDS011;45588;51.598;5.618;2023-04-25T10:16:19;6.20;;;2.70;;
59728;SDS011;45588;51.598;5.618;2023-04-25T10:18:44;8.20;;;3.25;;
59728;SDS011;45588;51.598;5.618;2023-04-25T10:21:09;10.40;;;2.23;;
59728;SDS011;45588;51.598;5.618;2023-04-25T10:23:35;7.03;;;1.90;;
59728;SDS011;45588;51.598;5.618;2023-04-25T10:26:01;3.92;;;2.00;;
59728;SDS011;45588;51.598;5.618;2023-04-25T10:28:27;5.22;;;1.88;;
59728;SDS011;45588;51.598;5.618;2023-04-25T10:30:59;5.40;;;1.75;;
59728;SDS011;45588;51.598;5.618;2023-04-25T10:33:38;3.75;;;1.50;;
59728;SDS011;45588;51.598;5.618;2023-04-25T10:36:10;4.80;;;1.65;;
59728;SDS011;45588;51.598;5.618;2023-04-25T10:38:36;10.90;;;2.53;;
59728;SDS011;45588;51.598;5.618;2023-04-25T10:41:02;6.93;;;2.97;;
59728;SDS011;45588;51.598;5.618;2023-04-25T10:45:55;7.15;;;1.95;;
59728;SDS011;45588;51.598;5.618;2023-04-25T10:48:27;6.82;;;2.50;;
59728;SDS011;45588;51.598;5.618;2023-04-25T10:51:08;3.13;;;2.30;;
59728;SDS011;45588;51.598;5.618;2023-04-25T10:53:33;7.10;;;2.03;;
59728;SDS011;45588;51.598;5.618;2023-04-25T10:55:59;8.65;;;1.65;;
59728;SDS011;45588;51.598;5.618;2023-04-25T10:58:24;7.63;;;3.00;;
59728;SDS011;45588;51.598;5.618;2023-04-25T11:00:49;9.73;;;2.60;;
59728;SDS011;45588;51.598;5.618;2023-04-25T11:03:15;9.43;;;3.10;;
59728;SDS011;45588;51.598;5.618;2023-04-25T11:05:41;3.25;;;1.30;;
59728;SDS011;45588;51.598;5.618;2023-04-25T11:08:11;7.72;;;1.65;;
59728;SDS011;45588;51.598;5.618;2023-04-25T11:10:36;8.85;;;1.85;;
59728;SDS011;45588;51.598;5.618;2023-04-25T11:13:02;8.75;;;2.80;;
59728;SDS011;45588;51.598;5.618;2023-04-25T11:15:27;9.18;;;1.60;;
59728;SDS011;45588;51.598;5.618;2023-04-25T11:17:53;7.95;;;1.83;;
59728;SDS011;45588;51.598;5.618;2023-04-25T11:20:18;3.58;;;2.00;;
59728;SDS011;45588;51.598;5.618;2023-04-25T11:22:44;3.45;;;1.45;;
59728;SDS011;45588;51.598;5.618;2023-04-25T11:25:10;7.05;;;2.10;;
59728;SDS011;45588;51.598;5.618;2023-04-25T11:27:57;6.60;;;2.15;;
59728;SDS011;45588;51.598;5.618;2023-04-25T11:30:22;7.32;;;2.13;;
59728;SDS011;45588;51.598;5.618;2023-04-25T11:32:48;5.55;;;2.60;;
59728;SDS011;45588;51.598;5.618;2023-04-25T11:35:13;7.55;;;2.42;;
59728;SDS011;45588;51.598;5.618;2023-04-25T11:37:39;6.63;;;1.80;;
59728;SDS011;45588;51.598;5.618;2023-04-25T11:40:05;3.88;;;1.67;;
59728;SDS011;45588;51.598;5.618;2023-04-25T11:42:31;6.90;;;2.33;;
59728;SDS011;45588;51.598;5.618;2023-04-25T11:44:56;7.57;;;2.00;;
59728;SDS011;45588;51.598;5.618;2023-04-25T11:47:27;9.00;;;2.30;;
59728;SDS011;45588;51.598;5.618;2023-04-25T11:49:52;5.95;;;1.83;;
59728;SDS011;45588;51.598;5.618;2023-04-25T11:52:18;6.68;;;2.80;;
59728;SDS011;45588;51.598;5.618;2023-04-25T11:54:43;6.50;;;2.13;;
59728;SDS011;45588;51.598;5.618;2023-04-25T11:57:09;5.00;;;1.98;;
59728;SDS011;45588;51.598;5.618;2023-04-25T11:59:34;4.85;;;1.83;;
59728;SDS011;45588;51.598;5.618;2023-04-25T12:02:00;2.58;;;1.35;;
59728;SDS011;45588;51.598;5.618;2023-04-25T12:04:29;4.07;;;1.20;;
59728;SDS011;45588;51.598;5.618;2023-04-25T12:06:54;6.85;;;1.88;;
59728;SDS011;45588;51.598;5.618;2023-04-25T12:09:21;5.13;;;1.33;;
59728;SDS011;45588;51.598;5.618;2023-04-25T12:11:53;2.80;;;1.50;;
59728;SDS011;45588;51.598;5.618;2023-04-25T12:14:22;5.13;;;2.17;;
59728;SDS011;45588;51.598;5.618;2023-04-25T12:16:49;2.15;;;1.35;;
59728;SDS011;45588;51.598;5.618;2023-04-25T12:19:15;2.20;;;1.35;;
59728;SDS011;45588;51.598;5.618;2023-04-25T12:21:41;4.68;;;2.03;;
59728;SDS011;45588;51.598;5.618;2023-04-25T12:24:13;2.47;;;0.85;;
59728;SDS011;45588;51.598;5.618;2023-04-25T12:29:38;3.03;;;0.80;;
59728;SDS011;45588;51.598;5.618;2023-04-25T12:32:03;1.47;;;0.90;;
59728;SDS011;45588;51.598;5.618;2023-04-25T12:34:28;3.22;;;1.10;;
59728;SDS011;45588;51.598;5.618;2023-04-25T12:36:54;3.73;;;1.50;;
59728;SDS011;45588;51.598;5.618;2023-04-25T12:39:22;6.43;;;1.27;;
59728;SDS011;45588;51.598;5.618;2023-04-25T12:41:48;4.88;;;1.70;;
59728;SDS011;45588;51.598;5.618;2023-04-25T12:44:13;4.00;;;1.85;;
59728;SDS011;45588;51.598;5.618;2023-04-25T12:46:39;3.53;;;1.15;;
59728;SDS011;45588;51.598;5.618;2023-04-25T12:49:04;3.05;;;1.45;;
59728;SDS011;45588;51.598;5.618;2023-04-25T12:51:31;4.03;;;0.88;;
59728;SDS011;45588;51.598;5.618;2023-04-25T12:53:57;7.90;;;2.65;;
59728;SDS011;45588;51.598;5.618;2023-04-25T12:56:22;6.65;;;1.73;;
59728;SDS011;45588;51.598;5.618;2023-04-25T12:58:48;6.82;;;2.80;;
59728;SDS011;45588;51.598;5.618;2023-04-25T13:01:14;4.53;;;1.80;;
59728;SDS011;45588;51.598;5.618;2023-04-25T13:03:39;8.38;;;2.63;;
59728;SDS011;45588;51.598;5.618;2023-04-25T13:06:05;5.72;;;2.60;;
59728;SDS011;45588;51.598;5.618;2023-04-25T13:08:31;7.28;;;2.50;;
59728;SDS011;45588;51.598;5.618;2023-04-25T13:10:56;7.10;;;2.67;;
59728;SDS011;45588;51.598;5.618;2023-04-25T13:13:21;7.53;;;2.83;;
59728;SDS011;45588;51.598;5.618;2023-04-25T13:15:46;4.30;;;2.40;;
59728;SDS011;45588;51.598;5.618;2023-04-25T13:18:11;5.53;;;2.10;;
59728;SDS011;45588;51.598;5.618;2023-04-25T13:20:36;7.13;;;2.47;;
59728;SDS011;45588;51.598;5.618;2023-04-25T13:23:02;10.30;;;3.38;;
59728;SDS011;45588;51.598;5.618;2023-04-25T13:25:27;8.85;;;2.35;;
59728;SDS011;45588;51.598;5.618;2023-04-25T13:27:52;9.37;;;2.27;;
59728;SDS011;45588;51.598;5.618;2023-04-25T13:30:17;9.17;;;3.20;;
59728;SDS011;45588;51.598;5.618;2023-04-25T13:32:42;5.57;;;1.60;;
59728;SDS011;45588;51.598;5.618;2023-04-25T13:35:09;6.13;;;1.92;;
59728;SDS011;45588;51.598;5.618;2023-04-25T13:37:35;8.60;;;2.60;;
59728;SDS011;45588;51.598;5.618;2023-04-25T13:40:00;7.47;;;2.25;;
59728;SDS011;45588;51.598;5.618;2023-04-25T13:42:27;7.97;;;3.08;;
59728;SDS011;45588;51.598;5.618;2023-04-25T13:44:53;7.40;;;2.20;;
59728;SDS011;45588;51.598;5.618;2023-04-25T13:47:18;3.50;;;1.20;;
59728;SDS011;45588;51.598;5.618;2023-04-25T13:49:43;2.73;;;1.33;;
59728;SDS011;45588;51.598;5.618;2023-04-25T13:52:08;5.83;;;2.30;;
59728;SDS011;45588;51.598;5.618;2023-04-25T13:54:33;7.17;;;2.60;;
59728;SDS011;45588;51.598;5.618;2023-04-25T13:57:01;8.80;;;1.58;;
59728;SDS011;45588;51.598;5.618;2023-04-25T13:59:27;3.00;;;1.25;;
59728;SDS011;45588;51.598;5.618;2023-04-25T14:01:52;3.50;;;1.60;;
59728;SDS011;45588;51.598;5.618;2023-04-25T14:04:17;9.90;;;2.57;;
59728;SDS011;45588;51.598;5.618;2023-04-25T14:06:42;6.00;;;1.60;;
59728;SDS011;45588;51.598;5.618;2023-04-25T14:09:07;7.18;;;2.65;;
59728;SDS011;45588;51.598;5.618;2023-04-25T14:11:35;5.20;;;1.60;;
59728;SDS011;45588;51.598;5.618;2023-04-25T14:14:00;6.53;;;2.25;;
59728;SDS011;45588;51.598;5.618;2023-04-25T14:16:25;6.33;;;2.50;;
59728;SDS011;45588;51.598;5.618;2023-04-25T14:18:50;7.13;;;2.70;;
59728;SDS011;45588;51.598;5.618;2023-04-25T14:21:22;5.20;;;1.50;;
59728;SDS011;45588;51.598;5.618;2023-04-25T14:23:47;5.03;;;1.38;;
59728;SDS011;45588;51.598;5.618;2023-04-25T14:26:12;4.07;;;1.50;;
59728;SDS011;45588;51.598;5.618;2023-04-25T14:28:38;4.75;;;1.45;;
59728;SDS011;45588;51.598;5.618;2023-04-25T14:31:03;7.82;;;2.55;;
59728;SDS011;45588;51.598;5.618;2023-04-25T14:33:28;5.13;;;2.15;;
59728;SDS011;45588;51.598;5.618;2023-04-25T14:35:53;5.53;;;2.07;;
59728;SDS011;45588;51.598;5.618;2023-04-25T14:38:19;4.18;;;1.90;;